sensor_id;sensor_type;location;lat;lon;timestamp;P1;durP1;ratioP1;P2;durP2;ratioP2
72161;SDS011;60047;51.644;5.842;2022-07-23T00:09:05;3.8;;;3.3;;
72161;SDS011;60047;51.644;5.842;2022-07-23T00:29:05;4.0;;;3.5;;
72161;SDS011;60047;51.644;5.842;2022-07-23T00:49:05;3.6;;;3.0;;
72161;SDS011;60047;51.644;5.842;2022-07-23T01:09:05;3.3;;;2.7;;
72161;SDS011;60047;51.644;5.842;2022-07-23T01:29:05;3.6;;;2.7;;
72161;SDS011;60047;51.644;5.842;2022-07-23T01:49:05;3.4;;;3.1;;
72161;SDS011;60047;51.644;5.842;2022-07-23T02:09:05;3.4;;;3.0;;
72161;SDS011;60047;51.644;5.842;2022-07-23T02:29:06;3.7;;;2.7;;
72161;SDS011;60047;51.644;5.842;2022-07-23T02:49:05;4.4;;;2.5;;
72161;SDS011;60047;51.644;5.842;2022-07-23T03:09:06;3.9;;;2.7;;
72161;SDS011;60047;51.644;5.842;2022-07-23T03:29:06;3.5;;;2.5;;
72161;SDS011;60047;51.644;5.842;2022-07-23T03:49:06;4.4;;;3.0;;
72161;SDS011;60047;51.644;5.842;2022-07-23T04:09:06;2.6;;;2.2;;
72161;SDS011;60047;51.644;5.842;2022-07-23T04:29:06;3.0;;;2.5;;
72161;SDS011;60047;51.644;5.842;2022-07-23T04:49:06;2.7;;;2.3;;
72161;SDS011;60047;51.644;5.842;2022-07-23T05:09:06;2.6;;;2.3;;
72161;SDS011;60047;51.644;5.842;2022-07-23T05:29:06;2.4;;;2.1;;
72161;SDS011;60047;51.644;5.842;2022-07-23T05:49:06;2.5;;;2.3;;
72161;SDS011;60047;51.644;5.842;2022-07-23T06:09:06;3.8;;;2.1;;
72161;SDS011;60047;51.644;5.842;2022-07-23T06:29:07;2.9;;;2.1;;
72161;SDS011;60047;51.644;5.842;2022-07-23T06:39:06;2.3;;;2.1;;
72161;SDS011;60047;51.644;5.842;2022-07-23T06:49:06;2.2;;;2.0;;
72161;SDS011;60047;51.644;5.842;2022-07-23T06:59:06;2.3;;;2.2;;
72161;SDS011;60047;51.644;5.842;2022-07-23T07:09:06;2.5;;;2.2;;
72161;SDS011;60047;51.644;5.842;2022-07-23T07:19:06;2.6;;;2.3;;
72161;SDS011;60047;51.644;5.842;2022-07-23T07:29:06;2.6;;;2.1;;
72161;SDS011;60047;51.644;5.842;2022-07-23T07:39:06;2.6;;;2.0;;
72161;SDS011;60047;51.644;5.842;2022-07-23T07:49:06;2.2;;;2.1;;
72161;SDS011;60047;51.644;5.842;2022-07-23T07:59:06;2.4;;;2.0;;
72161;SDS011;60047;51.644;5.842;2022-07-23T08:09:06;2.5;;;2.0;;
72161;SDS011;60047;51.644;5.842;2022-07-23T08:19:06;2.8;;;2.2;;
72161;SDS011;60047;51.644;5.842;2022-07-23T08:29:06;2.3;;;1.9;;
72161;SDS011;60047;51.644;5.842;2022-07-23T08:39:06;3.6;;;2.1;;
72161;SDS011;60047;51.644;5.842;2022-07-23T08:49:06;3.5;;;2.0;;
72161;SDS011;60047;51.644;5.842;2022-07-23T08:54:06;2.5;;;2.0;;
72161;SDS011;60047;51.644;5.842;2022-07-23T08:59:06;4.5;;;2.1;;
72161;SDS011;60047;51.644;5.842;2022-07-23T09:04:06;2.6;;;2.2;;
72161;SDS011;60047;51.644;5.842;2022-07-23T09:09:15;2.8;;;2.2;;
72161;SDS011;60047;51.644;5.842;2022-07-23T09:14:06;4.3;;;2.2;;
72161;SDS011;60047;51.644;5.842;2022-07-23T09:19:06;3.5;;;2.4;;
72161;SDS011;60047;51.644;5.842;2022-07-23T09:24:07;3.7;;;2.4;;
72161;SDS011;60047;51.644;5.842;2022-07-23T09:29:09;3.5;;;2.3;;
72161;SDS011;60047;51.644;5.842;2022-07-23T09:34:09;2.9;;;2.4;;
72161;SDS011;60047;51.644;5.842;2022-07-23T09:44:12;3.3;;;2.3;;
72161;SDS011;60047;51.644;5.842;2022-07-23T09:49:10;3.5;;;2.6;;
72161;SDS011;60047;51.644;5.842;2022-07-23T09:54:06;4.4;;;2.2;;
72161;SDS011;60047;51.644;5.842;2022-07-23T09:59:06;8.8;;;2.6;;
72161;SDS011;60047;51.644;5.842;2022-07-23T10:04:06;5.1;;;2.9;;
72161;SDS011;60047;51.644;5.842;2022-07-23T10:09:06;6.7;;;3.1;;
72161;SDS011;60047;51.644;5.842;2022-07-23T10:14:06;5.4;;;3.0;;
72161;SDS011;60047;51.644;5.842;2022-07-23T10:19:06;5.7;;;3.2;;
72161;SDS011;60047;51.644;5.842;2022-07-23T10:24:24;5.9;;;3.4;;
72161;SDS011;60047;51.644;5.842;2022-07-23T10:30:03;5.1;;;2.7;;
72161;SDS011;60047;51.644;5.842;2022-07-23T10:35:36;6.0;;;3.0;;
72161;SDS011;60047;51.644;5.842;2022-07-23T10:39:29;5.3;;;3.3;;
72161;SDS011;60047;51.644;5.842;2022-07-23T10:44:07;7.6;;;4.1;;
72161;SDS011;60047;51.644;5.842;2022-07-23T10:49:23;4.7;;;2.9;;
72161;SDS011;60047;51.644;5.842;2022-07-23T10:54:06;4.6;;;3.4;;
72161;SDS011;60047;51.644;5.842;2022-07-23T10:59:06;4.7;;;3.0;;
72161;SDS011;60047;51.644;5.842;2022-07-23T11:04:06;7.7;;;3.0;;
72161;SDS011;60047;51.644;5.842;2022-07-23T11:09:25;4.8;;;3.0;;
72161;SDS011;60047;51.644;5.842;2022-07-23T11:14:06;4.6;;;3.0;;
72161;SDS011;60047;51.644;5.842;2022-07-23T11:19:08;6.6;;;3.2;;
72161;SDS011;60047;51.644;5.842;2022-07-23T11:24:10;4.8;;;3.3;;
72161;SDS011;60047;51.644;5.842;2022-07-23T11:29:41;3.9;;;3.0;;
72161;SDS011;60047;51.644;5.842;2022-07-23T11:34:24;4.5;;;2.9;;
72161;SDS011;60047;51.644;5.842;2022-07-23T11:39:06;4.5;;;3.0;;
72161;SDS011;60047;51.644;5.842;2022-07-23T11:44:06;6.7;;;3.4;;
72161;SDS011;60047;51.644;5.842;2022-07-23T11:49:06;4.4;;;3.4;;
72161;SDS011;60047;51.644;5.842;2022-07-23T11:54:06;5.5;;;3.7;;
72161;SDS011;60047;51.644;5.842;2022-07-23T11:59:06;6.3;;;4.0;;
72161;SDS011;60047;51.644;5.842;2022-07-23T12:04:06;6.2;;;3.9;;
72161;SDS011;60047;51.644;5.842;2022-07-23T12:09:07;5.5;;;3.9;;
72161;SDS011;60047;51.644;5.842;2022-07-23T12:14:08;9.3;;;4.2;;
72161;SDS011;60047;51.644;5.842;2022-07-23T12:19:07;6.2;;;3.8;;
72161;SDS011;60047;51.644;5.842;2022-07-23T12:24:07;7.4;;;3.9;;
72161;SDS011;60047;51.644;5.842;2022-07-23T12:29:07;6.2;;;3.8;;
72161;SDS011;60047;51.644;5.842;2022-07-23T12:34:13;5.2;;;3.9;;
72161;SDS011;60047;51.644;5.842;2022-07-23T12:39:07;4.3;;;3.7;;
72161;SDS011;60047;51.644;5.842;2022-07-23T12:44:14;7.3;;;4.3;;
72161;SDS011;60047;51.644;5.842;2022-07-23T12:49:07;6.6;;;4.3;;
72161;SDS011;60047;51.644;5.842;2022-07-23T12:54:08;5.9;;;4.4;;
72161;SDS011;60047;51.644;5.842;2022-07-23T12:59:12;7.7;;;4.6;;
72161;SDS011;60047;51.644;5.842;2022-07-23T13:04:10;6.1;;;4.2;;
72161;SDS011;60047;51.644;5.842;2022-07-23T13:09:09;7.1;;;4.5;;
72161;SDS011;60047;51.644;5.842;2022-07-23T13:14:07;7.4;;;4.4;;
72161;SDS011;60047;51.644;5.842;2022-07-23T13:19:07;8.0;;;4.8;;
72161;SDS011;60047;51.644;5.842;2022-07-23T13:24:08;8.2;;;4.9;;
72161;SDS011;60047;51.644;5.842;2022-07-23T13:29:07;7.6;;;4.3;;
72161;SDS011;60047;51.644;5.842;2022-07-23T13:34:07;7.2;;;5.3;;
72161;SDS011;60047;51.644;5.842;2022-07-23T13:39:07;7.1;;;4.9;;
72161;SDS011;60047;51.644;5.842;2022-07-23T13:44:07;7.7;;;4.8;;
72161;SDS011;60047;51.644;5.842;2022-07-23T13:49:07;6.6;;;4.9;;
72161;SDS011;60047;51.644;5.842;2022-07-23T13:54:07;9.6;;;5.0;;
72161;SDS011;60047;51.644;5.842;2022-07-23T13:59:07;9.3;;;5.2;;
72161;SDS011;60047;51.644;5.842;2022-07-23T14:04:07;8.2;;;4.9;;
72161;SDS011;60047;51.644;5.842;2022-07-23T14:09:07;7.1;;;5.2;;
72161;SDS011;60047;51.644;5.842;2022-07-23T14:14:07;7.1;;;5.2;;
72161;SDS011;60047;51.644;5.842;2022-07-23T14:19:07;6.3;;;5.0;;
72161;SDS011;60047;51.644;5.842;2022-07-23T14:24:07;8.2;;;4.8;;
72161;SDS011;60047;51.644;5.842;2022-07-23T14:29:07;7.3;;;5.0;;
72161;SDS011;60047;51.644;5.842;2022-07-23T14:34:07;7.3;;;4.7;;
72161;SDS011;60047;51.644;5.842;2022-07-23T14:39:07;5.9;;;4.8;;
72161;SDS011;60047;51.644;5.842;2022-07-23T14:44:07;7.8;;;5.0;;
72161;SDS011;60047;51.644;5.842;2022-07-23T14:49:07;8.7;;;5.4;;
72161;SDS011;60047;51.644;5.842;2022-07-23T14:54:07;9.4;;;5.2;;
72161;SDS011;60047;51.644;5.842;2022-07-23T14:59:07;7.4;;;5.1;;
72161;SDS011;60047;51.644;5.842;2022-07-23T15:04:07;7.3;;;5.4;;
72161;SDS011;60047;51.644;5.842;2022-07-23T15:09:07;9.1;;;5.5;;
72161;SDS011;60047;51.644;5.842;2022-07-23T15:14:07;7.8;;;5.6;;
72161;SDS011;60047;51.644;5.842;2022-07-23T15:19:07;6.6;;;5.1;;
72161;SDS011;60047;51.644;5.842;2022-07-23T15:24:07;9.8;;;5.4;;
72161;SDS011;60047;51.644;5.842;2022-07-23T15:29:07;8.3;;;5.0;;
72161;SDS011;60047;51.644;5.842;2022-07-23T15:34:07;8.4;;;5.5;;
72161;SDS011;60047;51.644;5.842;2022-07-23T15:39:07;8.8;;;5.3;;
72161;SDS011;60047;51.644;5.842;2022-07-23T15:44:07;8.3;;;5.5;;
72161;SDS011;60047;51.644;5.842;2022-07-23T15:49:07;10.7;;;5.5;;
72161;SDS011;60047;51.644;5.842;2022-07-23T15:54:07;7.2;;;5.5;;
72161;SDS011;60047;51.644;5.842;2022-07-23T15:59:07;10.1;;;5.6;;
72161;SDS011;60047;51.644;5.842;2022-07-23T16:04:07;7.7;;;5.8;;
72161;SDS011;60047;51.644;5.842;2022-07-23T16:09:07;8.5;;;6.1;;
72161;SDS011;60047;51.644;5.842;2022-07-23T16:14:07;6.8;;;5.3;;
72161;SDS011;60047;51.644;5.842;2022-07-23T16:19:08;8.4;;;6.2;;
72161;SDS011;60047;51.644;5.842;2022-07-23T16:24:07;8.8;;;5.7;;
72161;SDS011;60047;51.644;5.842;2022-07-23T16:29:07;7.0;;;5.6;;
72161;SDS011;60047;51.644;5.842;2022-07-23T16:34:07;6.6;;;5.4;;
72161;SDS011;60047;51.644;5.842;2022-07-23T16:39:07;9.0;;;6.0;;
72161;SDS011;60047;51.644;5.842;2022-07-23T16:44:07;8.5;;;6.3;;
72161;SDS011;60047;51.644;5.842;2022-07-23T16:49:07;11.1;;;5.9;;
72161;SDS011;60047;51.644;5.842;2022-07-23T16:54:07;9.3;;;6.0;;
72161;SDS011;60047;51.644;5.842;2022-07-23T16:59:07;9.4;;;6.1;;
72161;SDS011;60047;51.644;5.842;2022-07-23T17:04:07;7.9;;;6.2;;
72161;SDS011;60047;51.644;5.842;2022-07-23T17:09:07;9.5;;;6.1;;
72161;SDS011;60047;51.644;5.842;2022-07-23T17:14:07;8.7;;;6.2;;
72161;SDS011;60047;51.644;5.842;2022-07-23T17:19:07;8.6;;;6.0;;
72161;SDS011;60047;51.644;5.842;2022-07-23T17:24:07;7.9;;;5.6;;
72161;SDS011;60047;51.644;5.842;2022-07-23T17:29:08;8.4;;;5.5;;
72161;SDS011;60047;51.644;5.842;2022-07-23T17:34:08;9.3;;;5.8;;
72161;SDS011;60047;51.644;5.842;2022-07-23T17:39:08;10.0;;;5.8;;
72161;SDS011;60047;51.644;5.842;2022-07-23T17:44:07;7.4;;;5.9;;
72161;SDS011;60047;51.644;5.842;2022-07-23T17:49:08;8.7;;;5.9;;
72161;SDS011;60047;51.644;5.842;2022-07-23T17:54:08;8.4;;;6.1;;
72161;SDS011;60047;51.644;5.842;2022-07-23T17:59:08;7.8;;;6.0;;
72161;SDS011;60047;51.644;5.842;2022-07-23T18:04:08;9.9;;;6.2;;
72161;SDS011;60047;51.644;5.842;2022-07-23T18:09:08;12.8;;;6.3;;
72161;SDS011;60047;51.644;5.842;2022-07-23T18:14:08;10.6;;;6.2;;
72161;SDS011;60047;51.644;5.842;2022-07-23T18:19:08;11.3;;;6.1;;
72161;SDS011;60047;51.644;5.842;2022-07-23T18:24:08;7.4;;;5.9;;
72161;SDS011;60047;51.644;5.842;2022-07-23T18:29:08;10.0;;;6.6;;
72161;SDS011;60047;51.644;5.842;2022-07-23T18:34:08;7.5;;;5.7;;
72161;SDS011;60047;51.644;5.842;2022-07-23T18:39:08;8.0;;;5.9;;
72161;SDS011;60047;51.644;5.842;2022-07-23T18:44:08;7.6;;;5.8;;
72161;SDS011;60047;51.644;5.842;2022-07-23T18:49:08;9.4;;;6.8;;
72161;SDS011;60047;51.644;5.842;2022-07-23T18:54:08;11.1;;;7.7;;
72161;SDS011;60047;51.644;5.842;2022-07-23T18:59:08;12.4;;;8.5;;
72161;SDS011;60047;51.644;5.842;2022-07-23T19:04:08;9.4;;;7.8;;
72161;SDS011;60047;51.644;5.842;2022-07-23T19:09:08;8.7;;;7.5;;
72161;SDS011;60047;51.644;5.842;2022-07-23T19:14:08;10.3;;;7.8;;
72161;SDS011;60047;51.644;5.842;2022-07-23T19:19:08;12.8;;;8.2;;
72161;SDS011;60047;51.644;5.842;2022-07-23T19:24:08;9.1;;;7.2;;
72161;SDS011;60047;51.644;5.842;2022-07-23T19:29:08;10.8;;;7.8;;
72161;SDS011;60047;51.644;5.842;2022-07-23T19:34:08;14.4;;;13.0;;
72161;SDS011;60047;51.644;5.842;2022-07-23T19:39:08;12.2;;;10.2;;
72161;SDS011;60047;51.644;5.842;2022-07-23T19:44:08;10.7;;;8.8;;
72161;SDS011;60047;51.644;5.842;2022-07-23T19:49:08;11.5;;;9.2;;
72161;SDS011;60047;51.644;5.842;2022-07-23T19:54:08;10.1;;;8.7;;
72161;SDS011;60047;51.644;5.842;2022-07-23T19:59:08;10.3;;;8.7;;
72161;SDS011;60047;51.644;5.842;2022-07-23T20:04:08;11.8;;;8.6;;
72161;SDS011;60047;51.644;5.842;2022-07-23T20:09:08;11.1;;;8.7;;
72161;SDS011;60047;51.644;5.842;2022-07-23T20:14:08;11.6;;;9.4;;
72161;SDS011;60047;51.644;5.842;2022-07-23T20:19:08;14.5;;;11.7;;
72161;SDS011;60047;51.644;5.842;2022-07-23T20:24:08;12.1;;;10.2;;
72161;SDS011;60047;51.644;5.842;2022-07-23T20:29:08;11.7;;;10.3;;
72161;SDS011;60047;51.644;5.842;2022-07-23T20:34:08;13.6;;;9.6;;
72161;SDS011;60047;51.644;5.842;2022-07-23T20:39:08;10.6;;;9.2;;
72161;SDS011;60047;51.644;5.842;2022-07-23T20:44:08;10.9;;;9.2;;
72161;SDS011;60047;51.644;5.842;2022-07-23T20:49:08;11.2;;;9.2;;
72161;SDS011;60047;51.644;5.842;2022-07-23T20:54:08;13.3;;;9.4;;
72161;SDS011;60047;51.644;5.842;2022-07-23T20:59:08;9.9;;;8.8;;
72161;SDS011;60047;51.644;5.842;2022-07-23T21:04:08;11.5;;;8.9;;
72161;SDS011;60047;51.644;5.842;2022-07-23T21:09:08;12.6;;;9.6;;
72161;SDS011;60047;51.644;5.842;2022-07-23T21:14:08;11.3;;;9.4;;
72161;SDS011;60047;51.644;5.842;2022-07-23T21:19:08;10.6;;;8.7;;
72161;SDS011;60047;51.644;5.842;2022-07-23T21:24:08;10.8;;;8.7;;
72161;SDS011;60047;51.644;5.842;2022-07-23T21:29:08;10.0;;;8.9;;
72161;SDS011;60047;51.644;5.842;2022-07-23T21:34:08;9.9;;;8.3;;
72161;SDS011;60047;51.644;5.842;2022-07-23T21:39:08;10.7;;;8.6;;
72161;SDS011;60047;51.644;5.842;2022-07-23T21:44:09;10.8;;;8.9;;
72161;SDS011;60047;51.644;5.842;2022-07-23T21:49:08;10.2;;;8.5;;
72161;SDS011;60047;51.644;5.842;2022-07-23T21:54:08;13.9;;;9.1;;
72161;SDS011;60047;51.644;5.842;2022-07-23T21:59:08;9.7;;;8.0;;
72161;SDS011;60047;51.644;5.842;2022-07-23T22:04:08;11.3;;;8.7;;
72161;SDS011;60047;51.644;5.842;2022-07-23T22:09:08;11.9;;;9.3;;
72161;SDS011;60047;51.644;5.842;2022-07-23T22:14:08;11.4;;;8.9;;
72161;SDS011;60047;51.644;5.842;2022-07-23T22:19:08;10.6;;;8.9;;
72161;SDS011;60047;51.644;5.842;2022-07-23T22:24:08;13.6;;;9.5;;
72161;SDS011;60047;51.644;5.842;2022-07-23T22:29:08;12.0;;;9.3;;
72161;SDS011;60047;51.644;5.842;2022-07-23T22:34:08;14.7;;;9.9;;
72161;SDS011;60047;51.644;5.842;2022-07-23T22:39:08;12.4;;;9.8;;
72161;SDS011;60047;51.644;5.842;2022-07-23T22:44:08;12.8;;;9.7;;
72161;SDS011;60047;51.644;5.842;2022-07-23T22:49:08;16.1;;;9.5;;
72161;SDS011;60047;51.644;5.842;2022-07-23T22:54:08;13.4;;;9.3;;
72161;SDS011;60047;51.644;5.842;2022-07-23T22:59:08;15.2;;;9.7;;
72161;SDS011;60047;51.644;5.842;2022-07-23T23:04:08;13.5;;;9.4;;
72161;SDS011;60047;51.644;5.842;2022-07-23T23:09:08;14.4;;;9.5;;
72161;SDS011;60047;51.644;5.842;2022-07-23T23:14:08;12.2;;;9.2;;
72161;SDS011;60047;51.644;5.842;2022-07-23T23:19:08;16.3;;;10.0;;
72161;SDS011;60047;51.644;5.842;2022-07-23T23:24:08;11.8;;;9.2;;
72161;SDS011;60047;51.644;5.842;2022-07-23T23:29:08;13.6;;;9.1;;
72161;SDS011;60047;51.644;5.842;2022-07-23T23:34:08;13.6;;;9.7;;
72161;SDS011;60047;51.644;5.842;2022-07-23T23:39:08;14.5;;;10.3;;
72161;SDS011;60047;51.644;5.842;2022-07-23T23:44:08;13.1;;;9.7;;
72161;SDS011;60047;51.644;5.842;2022-07-23T23:49:08;12.4;;;9.4;;
72161;SDS011;60047;51.644;5.842;2022-07-23T23:54:09;13.2;;;9.6;;
72161;SDS011;60047;51.644;5.842;2022-07-23T23:59:09;13.7;;;9.6;;
